Time;durP1;ratioP1;P1;durP2;ratioP2;P2;SDS_P1;SDS_P2;PMS_P1;PMS_P2;Temp;Humidity;BMP_temperature;BMP_pressure;BME280_temperature;BME280_humidity;BME280_pressure;Samples;Min_cycle;Max_cycle;Signal;HPM_P1;HPM_P2
2022/09/01 00:06:58;;;;;;;2.08;0.80;;;;;;;19.25;82.38;102038.31;20719876;28;20057;-74
2022/09/01 00:17:03;;;;;;;1.25;0.52;;;;;;;19.25;82.23;102030.19;20717626;28;20050;-74
2022/09/01 00:27:05;;;;;;;;;;;;;;;19.24;82.32;102036.56;20781747;28;20175;-74
2022/09/01 00:37:06;;;;;;;0.57;0.50;;;;;;;19.23;82.44;102032.16;20798069;28;20411;-74
2022/09/01 00:47:08;;;;;;;0.88;0.70;;;;;;;19.23;82.17;102037.56;20780480;28;20108;-74
2022/09/01 00:57:11;;;;;;;0.50;0.50;;;;;;;19.22;82.05;102030.44;20763130;28;1069296;-74
2022/09/01 01:07:14;;;;;;;0.50;0.50;;;;;;;19.07;81.71;101999.22;20751228;28;20189;-74
2022/09/01 01:17:17;;;;;;;0.80;0.60;;;;;;;19.15;81.64;102007.59;20782432;28;20382;-74
2022/09/01 01:27:20;;;;;;;0.40;0.40;;;;;;;19.21;81.61;102008.94;20747507;28;20432;-74
2022/09/01 01:37:24;;;;;;;0.50;0.50;;;;;;;19.20;81.37;102020.72;20790332;28;20045;-74
2022/09/01 01:47:26;;;;;;;0.98;0.60;;;;;;;19.18;81.27;102017.28;20797489;28;20099;-74
2022/09/01 01:57:30;;;;;;;1.05;0.50;;;;;;;19.01;81.27;101995.16;20780433;28;20143;-74
2022/09/01 02:07:32;;;;;;;0.60;0.60;;;;;;;19.17;81.01;102021.84;20797074;28;20064;-74
2022/09/01 02:17:34;;;;;;;1.38;0.60;;;;;;;18.98;81.19;101992.69;20779367;28;20048;-73
2022/09/01 02:27:38;;;;;;;0.40;0.40;;;;;;;18.99;80.87;102000.66;20794639;28;20455;-74
2022/09/01 02:37:42;;;;;;;0.73;0.50;;;;;;;19.15;80.78;102029.19;20783617;28;20586;-74
2022/09/01 02:47:47;;;;;;;0.68;0.52;;;;;;;19.14;80.47;102019.38;20715587;28;20199;-74
2022/09/01 02:57:54;;;;;;;0.80;0.40;;;;;;;19.13;80.56;102015.78;20678788;28;20053;-73
2022/09/01 03:08:01;;;;;;;0.60;0.40;;;;;;;19.13;80.10;102010.41;20713697;28;20050;-74
2022/09/01 03:18:05;;;;;;;0.57;0.30;;;;;;;19.02;80.32;101996.03;20759388;28;20132;-74
2022/09/01 03:28:07;;;;;;;0.40;0.40;;;;;;;19.12;79.99;102013.22;20775186;28;20041;-74
2022/09/01 03:38:20;;;;;;;0.50;0.50;;;;;;;19.11;79.71;102006.97;20758127;28;20042;-74
2022/09/01 03:48:27;;;;;;;0.70;0.60;;;;;;;19.10;79.88;102007.09;20769154;28;20045;-75
2022/09/01 03:58:29;;;;;;;0.80;0.47;;;;;;;18.90;79.79;101978.91;20705477;28;20054;-74
2022/09/01 04:08:31;;;;;;;0.50;0.50;;;;;;;18.80;79.40;101966.09;20696060;28;20075;-74
2022/09/01 04:18:34;;;;;;;1.65;0.50;;;;;;;19.08;79.37;102012.59;20723817;28;20068;-75
2022/09/01 04:28:44;;;;;;;0.68;0.40;;;;;;;19.01;78.97;101994.31;20722524;28;20045;-75
2022/09/01 04:38:48;;;;;;;1.02;0.68;;;;;;;18.68;79.24;101951.72;20721349;28;20052;-74
2022/09/01 04:48:51;;;;;;;0.80;0.47;;;;;;;19.06;79.12;102003.75;20720516;28;20099;-74
2022/09/01 04:58:54;;;;;;;0.75;0.55;;;;;;;19.07;78.72;101999.22;20703045;28;20046;-74
2022/09/01 05:08:56;;;;;;;1.35;0.55;;;;;;;19.04;78.62;101994.91;20765207;28;20053;-74
2022/09/01 05:19:23;;;;;;;0.63;0.40;;;;;;;19.06;78.49;102002.91;20791025;28;20049;-76
2022/09/01 05:29:27;;;;;;;0.83;0.50;;;;;;;19.04;78.35;101997.63;20780520;28;20045;-74
2022/09/01 05:39:30;;;;;;;0.60;0.60;;;;;;;19.03;78.27;101990.50;20764302;28;20049;-74
2022/09/01 05:49:32;;;;;;;0.77;0.52;;;;;;;18.86;77.97;101972.84;20778849;28;20049;-75
2022/09/01 05:59:39;;;;;;;;;;;;;;;19.03;77.76;102013.94;20763300;28;20076;-75
2022/09/01 06:09:48;;;;;;;1.20;0.60;;;;;;;19.02;77.99;102015.75;20774859;28;19928;-74
2022/09/01 06:19:55;;;;;;;1.73;0.52;;;;;;;19.03;77.82;102013.94;20715302;28;20042;-75
2022/09/01 06:29:57;;;;;;;0.93;0.60;;;;;;;18.82;77.96;101985.75;20702161;28;20132;-75
2022/09/01 06:39:59;;;;;;;0.73;0.50;;;;;;;19.02;78.07;102023.00;20675981;28;20144;-75
2022/09/01 06:50:02;;;;;;;0.68;0.43;;;;;;;18.93;78.05;102013.72;20690209;28;20054;-75
2022/09/01 07:00:16;;;;;;;0.70;0.50;;;;;;;18.95;77.94;102023.41;20679337;28;20049;-73
2022/09/01 07:10:23;;;;;;;0.63;0.47;;;;;;;19.02;78.45;102039.22;20672697;28;20046;-74
2022/09/01 07:20:47;;;;;;;1.33;0.50;;;;;;;18.93;78.73;102025.38;20651033;28;20096;-75
2022/09/01 07:31:26;;;;;;;0.85;0.60;;;;;;;19.01;78.64;102043.72;20697623;28;20140;-74
2022/09/01 07:41:48;;;;;;;1.63;0.60;;;;;;;19.02;79.20;102041.91;20707034;28;20107;-73
2022/09/01 07:52:41;;;;;;;1.85;0.40;;;;;;;19.02;79.06;102039.22;20763296;28;20133;-74
2022/09/01 08:02:45;;;;;;;1.20;0.52;;;;;;;19.02;79.25;102040.06;20699186;28;20049;-73
2022/09/01 08:12:50;;;;;;;2.22;0.50;;;;;;;19.04;79.21;102042.66;20718079;28;20037;-73
2022/09/01 08:23:00;;;;;;;0.93;0.50;;;;;;;19.03;79.48;102043.63;20721746;28;20557;-74
2022/09/01 08:33:06;;;;;;;0.93;0.50;;;;;;;19.09;79.19;102053.94;20716379;28;20041;-74
2022/09/01 08:43:38;;;;;;;0.85;0.40;;;;;;;19.13;79.19;102041.94;20786908;28;20502;-73
2022/09/01 08:53:45;;;;;;;0.75;0.40;;;;;;;19.10;79.29;102039.47;20728398;28;20105;-73
2022/09/01 09:04:08;;;;;;;1.88;0.60;;;;;;;19.19;79.31;102035.19;20704743;28;20282;-73
2022/09/01 09:14:38;;;;;;;0.63;0.40;;;;;;;19.19;79.37;102027.97;20754519;28;20053;-74
2022/09/01 09:24:51;;;;;;;0.50;0.32;;;;;;;19.19;79.17;102030.69;20688441;28;20046;-74
2022/09/01 09:34:53;;;;;;;1.15;0.47;;;;;;;19.19;79.14;102010.91;20731881;28;20064;-74
2022/09/01 09:44:55;;;;;;;0.63;0.43;;;;;;;19.00;79.42;101985.34;20679137;28;20100;-74
2022/09/01 09:55:04;;;;;;;0.70;0.40;;;;;;;19.14;79.08;101992.38;20682077;28;20144;-74
2022/09/01 10:05:24;;;;;;;0.70;0.63;;;;;;;19.17;79.25;101997.53;20678899;28;20046;-74
2022/09/01 10:15:29;;;;;;;0.45;0.30;;;;;;;19.18;78.85;101977.66;20681332;28;20498;-74
2022/09/01 10:25:33;;;;;;;0.60;0.38;;;;;;;19.19;79.05;101976.69;20729243;28;20075;-74
2022/09/01 10:35:39;;;;;;;0.68;0.40;;;;;;;18.96;79.01;101940.66;20733603;28;20065;-74
2022/09/01 10:45:43;;;;;;;0.85;0.40;;;;;;;19.19;79.13;101967.72;20714625;28;20060;-73
2022/09/01 10:56:37;;;;;;;0.30;0.30;;;;;;;19.18;78.86;101955.19;20687743;28;20056;-74
2022/09/01 11:06:57;;;;;;;0.50;0.50;;;;;;;19.10;78.68;101943.16;20546059;28;20050;-74
2022/09/01 11:17:24;;;;;;;0.40;0.40;;;;;;;19.12;78.30;101933.09;20696575;28;20050;-74
2022/09/01 11:27:48;;;;;;;0.77;0.50;;;;;;;19.18;78.08;101933.59;20697663;28;20058;-74
2022/09/01 11:37:51;;;;;;;0.65;0.60;;;;;;;19.18;78.08;101937.19;20769090;28;20132;-74
2022/09/01 11:47:57;;;;;;;0.67;0.50;;;;;;;19.12;77.72;101921.47;20683604;28;20060;-74
2022/09/01 11:57:59;;;;;;;0.75;0.47;;;;;;;19.07;77.91;101899.38;20708406;28;20069;-74
2022/09/01 12:08:12;;;;;;;0.35;0.35;;;;;;;19.18;77.84;101906.59;20690802;28;20062;-74
2022/09/01 12:18:29;;;;;;;0.40;0.40;;;;;;;19.19;77.49;101905.63;20703360;28;20425;-74
2022/09/01 12:28:32;;;;;;;0.93;0.38;;;;;;;19.13;77.51;101882.69;20699259;28;20072;-74
2022/09/01 12:38:34;;;;;;;0.70;0.30;;;;;;;19.05;77.58;101882.44;20692012;28;20057;-74
2022/09/01 12:48:38;;;;;;;0.60;0.32;;;;;;;19.19;77.43;101898.41;20691466;28;20396;-74
2022/09/01 12:58:41;;;;;;;0.57;0.40;;;;;;;19.17;77.20;101892.25;20690171;28;20058;-74
2022/09/01 13:08:43;;;;;;;1.85;0.60;;;;;;;19.20;76.92;101894.72;20684033;28;20210;-72
2022/09/01 13:18:44;;;;;;;0.55;0.40;;;;;;;19.25;77.28;101873.63;20699200;28;20045;-73
2022/09/01 13:29:06;;;;;;;0.30;0.30;;;;;;;19.32;77.07;101870.44;20669640;28;20549;-73
2022/09/01 13:39:07;;;;;;;0.88;0.20;;;;;;;19.37;77.02;101843.91;20683143;28;20600;-73
2022/09/01 13:49:10;;;;;;;0.45;0.35;;;;;;;19.40;76.72;101838.25;20664771;28;20562;-73
2022/09/01 13:59:32;;;;;;;0.93;0.60;;;;;;;19.31;76.83;101812.00;20720781;28;20132;-73
2022/09/01 14:09:34;;;;;;;0.30;0.30;;;;;;;19.39;76.83;101807.72;20758805;28;20049;-74
2022/09/01 14:19:35;;;;;;;0.55;0.40;;;;;;;19.47;76.66;101804.41;20781523;28;20048;-73
2022/09/01 14:29:37;;;;;;;0.30;0.30;;;;;;;19.40;76.25;101786.97;20771152;28;20069;-73
2022/09/01 14:39:40;;;;;;;0.75;0.30;;;;;;;19.49;76.56;101799.75;20751528;28;20797;-74
2022/09/01 14:49:42;;;;;;;1.75;0.30;;;;;;;19.50;75.95;101785.25;20738038;28;20061;-74
2022/09/01 14:59:44;;;;;;;0.75;0.32;;;;;;;19.50;76.00;101790.66;20765684;28;20061;-74
2022/09/01 15:09:46;;;;;;;1.40;0.47;;;;;;;19.49;75.71;101779.97;20693359;28;20061;-73
2022/09/01 15:19:47;;;;;;;0.60;0.40;;;;;;;19.47;75.66;101763.91;20711221;28;20049;-74
2022/09/01 15:29:50;;;;;;;0.35;0.20;;;;;;;19.46;76.34;101761.31;20754741;28;20194;-74
2022/09/01 15:39:53;;;;;;;0.60;0.40;;;;;;;19.41;76.68;101749.03;20753114;28;20063;-74
2022/09/01 15:49:55;;;;;;;0.40;0.30;;;;;;;19.37;76.83;101746.72;20734477;28;20495;-74
2022/09/01 15:59:57;;;;;;;0.15;0.15;;;;;;;19.34;77.10;101744.25;20645775;28;20072;-74
2022/09/01 16:10:00;;;;;;;0.60;0.40;;;;;;;19.33;77.21;101734.44;20669359;28;20132;-74
2022/09/01 16:20:09;;;;;;;1.15;0.45;;;;;;;19.28;77.43;101735.69;20671140;28;20515;-74
2022/09/01 16:30:20;;;;;;;1.13;0.50;;;;;;;19.25;77.35;101735.94;20661438;28;20050;-74
2022/09/01 16:40:52;;;;;;;0.65;0.50;;;;;;;19.25;77.62;101721.59;20679946;28;20042;-74
2022/09/01 16:51:30;;;;;;;1.88;0.63;;;;;;;18.96;77.69;101677.03;20684814;28;20410;-74
2022/09/01 17:01:51;;;;;;;1.85;0.68;;;;;;;19.22;78.13;101717.28;20684817;28;20053;-74
2022/09/01 17:12:05;;;;;;;2.22;0.80;;;;;;;19.21;78.05;101715.56;20677413;28;20572;-74
2022/09/01 17:22:10;;;;;;;2.50;0.90;;;;;;;19.22;77.57;101711.91;20682874;28;20041;-74
2022/09/01 17:32:17;;;;;;;2.38;0.90;;;;;;;19.23;77.09;101713.63;20691602;28;20061;-74
2022/09/01 17:42:29;;;;;;;1.90;0.80;;;;;;;19.23;76.69;101707.38;20679222;28;20444;-74
2022/09/01 17:52:49;;;;;;;1.88;0.80;;;;;;;19.22;76.50;101711.91;20741486;28;20877;-74
2022/09/01 18:03:13;;;;;;;1.58;0.82;;;;;;;19.21;76.79;101706.59;20767992;28;20144;-74
2022/09/01 18:13:21;;;;;;;1.02;0.60;;;;;;;19.22;77.42;101711.91;20741392;28;20411;-74
2022/09/01 18:23:44;;;;;;;1.60;0.90;;;;;;;19.22;76.82;101720.00;20655368;28;20061;-74
2022/09/01 18:34:04;;;;;;;2.15;0.80;;;;;;;19.22;77.69;101729.91;20681269;28;21054;-74
2022/09/01 18:44:43;;;;;;;2.28;0.80;;;;;;;19.21;77.58;101729.06;20699474;28;20065;-74
2022/09/01 18:54:56;;;;;;;1.52;0.65;;;;;;;19.03;77.41;101706.28;20704072;28;20061;-74
2022/09/01 19:05:02;;;;;;;2.47;0.82;;;;;;;19.19;77.14;101739.13;20709073;28;20041;-74
2022/09/01 19:15:28;;;;;;;1.58;0.73;;;;;;;19.19;76.97;101739.13;20709780;28;20080;-74
2022/09/01 19:25:35;;;;;;;1.13;0.50;;;;;;;19.18;76.76;101740.13;20839303;28;20437;-75
2022/09/01 19:35:38;;;;;;;2.40;0.75;;;;;;;19.17;77.12;101746.50;20806304;28;20041;-74
2022/09/01 19:45:51;;;;;;;1.25;0.68;;;;;;;19.05;77.37;101725.91;20788987;28;20056;-74
2022/09/01 19:55:59;;;;;;;1.88;0.85;;;;;;;19.17;77.20;101759.13;20804987;28;20045;-74
2022/09/01 20:06:08;;;;;;;1.25;0.80;;;;;;;19.16;77.11;101766.38;20796666;28;20111;-74
2022/09/01 20:16:31;;;;;;;0.93;0.55;;;;;;;19.16;76.88;101770.91;20809929;28;20045;-74
2022/09/01 20:26:48;;;;;;;1.42;0.70;;;;;;;19.13;76.88;101778.28;20806187;28;20046;-74
2022/09/01 20:36:55;;;;;;;1.23;0.63;;;;;;;19.12;76.97;101771.16;20795759;28;20640;-74
2022/09/01 20:46:56;;;;;;;1.38;0.90;;;;;;;19.12;76.66;101770.31;20689483;28;20058;-74
2022/09/01 20:57:08;;;;;;;2.05;0.70;;;;;;;19.11;76.70;101774.00;20710127;28;20050;-74
2022/09/01 21:07:35;;;;;;;1.33;0.50;;;;;;;19.11;76.66;101774.00;20699865;28;20050;-74
2022/09/01 21:18:03;;;;;;;0.80;0.57;;;;;;;19.10;76.43;101774.97;20711560;28;20046;-74
2022/09/01 21:28:05;;;;;;;1.27;0.60;;;;;;;18.84;76.60;101729.31;20684466;28;20103;-74
2022/09/01 21:38:06;;;;;;;1.67;0.60;;;;;;;19.08;76.40;101767.00;20810178;28;20042;-74
2022/09/01 21:48:08;;;;;;;0.95;0.40;;;;;;;19.08;76.46;101760.75;20810915;28;20053;-74
2022/09/01 21:58:10;;;;;;;1.75;0.57;;;;;;;18.79;76.36;101718.03;20824238;28;20733;-74
2022/09/01 22:08:14;;;;;;;1.10;0.60;;;;;;;18.85;76.67;101733.72;20804682;28;20402;-74
2022/09/01 22:18:18;;;;;;;0.93;0.57;;;;;;;19.05;76.62;101766.41;20827881;28;20041;-74
2022/09/01 22:28:20;;;;;;;1.00;0.40;;;;;;;18.92;76.36;101743.03;20808393;28;20048;-74
2022/09/01 22:38:22;;;;;;;1.05;0.47;;;;;;;18.82;76.45;101726.75;20812947;28;20045;-74
2022/09/01 22:48:25;;;;;;;0.80;0.40;;;;;;;18.87;76.28;101723.66;20789208;28;20076;-75
2022/09/01 22:58:27;;;;;;;0.85;0.50;;;;;;;18.83;76.26;101712.28;20794867;28;20069;-74
2022/09/01 23:08:29;;;;;;;0.90;0.70;;;;;;;19.03;76.19;101744.06;20802126;28;20681;-74
2022/09/01 23:18:32;;;;;;;0.57;0.40;;;;;;;19.01;75.92;101736.09;20810034;28;20103;-74
2022/09/01 23:28:35;;;;;;;0.70;0.50;;;;;;;19.00;75.89;101731.66;20736285;28;20042;-74
2022/09/01 23:38:37;;;;;;;1.13;0.50;;;;;;;19.01;75.80;101724.44;20684213;28;20046;-74
2022/09/01 23:48:38;;;;;;;1.83;0.45;;;;;;;18.98;75.70;101710.19;20701817;28;20070;-74
2022/09/01 23:58:40;;;;;;;1.02;0.43;;;;;;;18.99;75.50;101705.66;20689763;28;20104;-74
